sensor_id;sensor_type;location;lat;lon;timestamp;P1;durP1;ratioP1;P2;durP2;ratioP2
26512;SDS011;14186;53.822;10.152;2022-11-20T00:00:16;5.57;;;2.50;;
26512;SDS011;14186;53.822;10.152;2022-11-20T00:05:17;6.63;;;3.10;;
26512;SDS011;14186;53.822;10.152;2022-11-20T00:10:18;6.85;;;2.65;;
26512;SDS011;14186;53.822;10.152;2022-11-20T00:15:18;7.53;;;2.60;;
26512;SDS011;14186;53.822;10.152;2022-11-20T00:20:18;6.30;;;2.80;;
26512;SDS011;14186;53.822;10.152;2022-11-20T00:25:20;5.15;;;2.50;;
26512;SDS011;14186;53.822;10.152;2022-11-20T00:30:20;4.43;;;2.10;;
26512;SDS011;14186;53.822;10.152;2022-11-20T00:35:20;5.30;;;3.00;;
26512;SDS011;14186;53.822;10.152;2022-11-20T00:40:22;4.88;;;2.00;;
26512;SDS011;14186;53.822;10.152;2022-11-20T00:45:22;5.93;;;2.63;;
26512;SDS011;14186;53.822;10.152;2022-11-20T00:50:22;5.85;;;2.50;;
26512;SDS011;14186;53.822;10.152;2022-11-20T00:55:24;5.65;;;2.45;;
26512;SDS011;14186;53.822;10.152;2022-11-20T01:00:24;6.72;;;2.78;;
26512;SDS011;14186;53.822;10.152;2022-11-20T01:05:24;6.05;;;2.60;;
26512;SDS011;14186;53.822;10.152;2022-11-20T01:10:26;7.50;;;3.20;;
26512;SDS011;14186;53.822;10.152;2022-11-20T01:15:26;5.63;;;2.92;;
26512;SDS011;14186;53.822;10.152;2022-11-20T01:20:26;6.22;;;3.08;;
26512;SDS011;14186;53.822;10.152;2022-11-20T01:25:28;6.80;;;2.83;;
26512;SDS011;14186;53.822;10.152;2022-11-20T01:30:28;6.53;;;3.22;;
26512;SDS011;14186;53.822;10.152;2022-11-20T01:35:28;6.18;;;3.00;;
26512;SDS011;14186;53.822;10.152;2022-11-20T01:40:30;8.00;;;3.35;;
26512;SDS011;14186;53.822;10.152;2022-11-20T01:50:48;6.38;;;3.15;;
26512;SDS011;14186;53.822;10.152;2022-11-20T01:55:51;6.13;;;3.58;;
26512;SDS011;14186;53.822;10.152;2022-11-20T02:00:52;6.57;;;3.33;;
26512;SDS011;14186;53.822;10.152;2022-11-20T02:05:54;7.03;;;3.28;;
26512;SDS011;14186;53.822;10.152;2022-11-20T02:10:56;6.18;;;3.00;;
26512;SDS011;14186;53.822;10.152;2022-11-20T02:15:57;7.03;;;3.55;;
26512;SDS011;14186;53.822;10.152;2022-11-20T02:20:59;7.80;;;3.15;;
26512;SDS011;14186;53.822;10.152;2022-11-20T02:26:03;8.53;;;3.77;;
26512;SDS011;14186;53.822;10.152;2022-11-20T02:31:04;6.43;;;3.20;;
26512;SDS011;14186;53.822;10.152;2022-11-20T02:36:05;5.95;;;3.20;;
26512;SDS011;14186;53.822;10.152;2022-11-20T02:41:06;8.38;;;3.60;;
26512;SDS011;14186;53.822;10.152;2022-11-20T02:46:07;7.57;;;3.40;;
26512;SDS011;14186;53.822;10.152;2022-11-20T02:51:07;6.43;;;3.30;;
26512;SDS011;14186;53.822;10.152;2022-11-20T02:56:09;6.97;;;3.20;;
26512;SDS011;14186;53.822;10.152;2022-11-20T03:01:09;7.57;;;2.75;;
26512;SDS011;14186;53.822;10.152;2022-11-20T03:06:09;9.73;;;3.70;;
26512;SDS011;14186;53.822;10.152;2022-11-20T03:11:10;9.32;;;3.67;;
26512;SDS011;14186;53.822;10.152;2022-11-20T03:16:12;5.30;;;3.00;;
26512;SDS011;14186;53.822;10.152;2022-11-20T03:21:13;7.28;;;3.25;;
26512;SDS011;14186;53.822;10.152;2022-11-20T03:26:16;7.45;;;3.15;;
26512;SDS011;14186;53.822;10.152;2022-11-20T03:31:17;5.50;;;3.00;;
26512;SDS011;14186;53.822;10.152;2022-11-20T03:36:18;7.53;;;3.55;;
26512;SDS011;14186;53.822;10.152;2022-11-20T03:41:20;7.00;;;3.05;;
26512;SDS011;14186;53.822;10.152;2022-11-20T03:46:21;7.65;;;2.97;;
26512;SDS011;14186;53.822;10.152;2022-11-20T03:51:22;8.82;;;3.40;;
26512;SDS011;14186;53.822;10.152;2022-11-20T03:56:27;10.23;;;3.80;;
26512;SDS011;14186;53.822;10.152;2022-11-20T04:01:29;9.15;;;3.63;;
26512;SDS011;14186;53.822;10.152;2022-11-20T04:06:32;6.82;;;3.08;;
26512;SDS011;14186;53.822;10.152;2022-11-20T04:11:34;7.28;;;3.45;;
26512;SDS011;14186;53.822;10.152;2022-11-20T04:16:35;6.72;;;3.17;;
26512;SDS011;14186;53.822;10.152;2022-11-20T04:21:35;6.95;;;3.38;;
26512;SDS011;14186;53.822;10.152;2022-11-20T04:26:37;7.33;;;3.03;;
26512;SDS011;14186;53.822;10.152;2022-11-20T04:31:37;6.93;;;3.22;;
26512;SDS011;14186;53.822;10.152;2022-11-20T04:36:38;6.78;;;3.28;;
26512;SDS011;14186;53.822;10.152;2022-11-20T04:41:39;6.63;;;3.53;;
26512;SDS011;14186;53.822;10.152;2022-11-20T04:46:40;7.07;;;3.42;;
26512;SDS011;14186;53.822;10.152;2022-11-20T04:51:40;6.45;;;3.65;;
26512;SDS011;14186;53.822;10.152;2022-11-20T04:56:42;8.77;;;3.75;;
26512;SDS011;14186;53.822;10.152;2022-11-20T05:01:42;11.13;;;3.55;;
26512;SDS011;14186;53.822;10.152;2022-11-20T05:06:42;6.80;;;3.45;;
26512;SDS011;14186;53.822;10.152;2022-11-20T05:11:44;7.53;;;3.42;;
26512;SDS011;14186;53.822;10.152;2022-11-20T05:16:44;8.25;;;3.83;;
26512;SDS011;14186;53.822;10.152;2022-11-20T05:21:44;7.07;;;3.25;;
26512;SDS011;14186;53.822;10.152;2022-11-20T05:26:46;6.25;;;3.60;;
26512;SDS011;14186;53.822;10.152;2022-11-20T05:31:46;9.75;;;3.78;;
26512;SDS011;14186;53.822;10.152;2022-11-20T05:36:46;8.93;;;3.60;;
26512;SDS011;14186;53.822;10.152;2022-11-20T05:41:48;6.55;;;3.35;;
26512;SDS011;14186;53.822;10.152;2022-11-20T05:46:48;10.60;;;4.05;;
26512;SDS011;14186;53.822;10.152;2022-11-20T05:51:48;6.18;;;3.28;;
26512;SDS011;14186;53.822;10.152;2022-11-20T05:56:49;10.40;;;4.38;;
26512;SDS011;14186;53.822;10.152;2022-11-20T06:01:50;7.63;;;3.90;;
26512;SDS011;14186;53.822;10.152;2022-11-20T06:06:50;9.93;;;4.45;;
26512;SDS011;14186;53.822;10.152;2022-11-20T06:11:51;7.75;;;3.80;;
26512;SDS011;14186;53.822;10.152;2022-11-20T06:16:51;7.78;;;3.63;;
26512;SDS011;14186;53.822;10.152;2022-11-20T06:21:52;7.88;;;3.75;;
26512;SDS011;14186;53.822;10.152;2022-11-20T06:26:53;7.30;;;3.42;;
26512;SDS011;14186;53.822;10.152;2022-11-20T06:31:53;8.38;;;3.55;;
26512;SDS011;14186;53.822;10.152;2022-11-20T06:36:54;7.28;;;3.47;;
26512;SDS011;14186;53.822;10.152;2022-11-20T06:41:55;9.25;;;3.83;;
26512;SDS011;14186;53.822;10.152;2022-11-20T06:46:55;9.48;;;3.60;;
26512;SDS011;14186;53.822;10.152;2022-11-20T06:51:55;7.35;;;3.08;;
26512;SDS011;14186;53.822;10.152;2022-11-20T06:56:57;7.07;;;3.72;;
26512;SDS011;14186;53.822;10.152;2022-11-20T07:01:57;8.57;;;4.13;;
26512;SDS011;14186;53.822;10.152;2022-11-20T07:06:57;7.65;;;3.92;;
26512;SDS011;14186;53.822;10.152;2022-11-20T07:11:59;7.90;;;4.97;;
26512;SDS011;14186;53.822;10.152;2022-11-20T07:16:59;9.45;;;5.07;;
26512;SDS011;14186;53.822;10.152;2022-11-20T07:21:59;12.93;;;6.35;;
26512;SDS011;14186;53.822;10.152;2022-11-20T07:27:01;7.22;;;3.92;;
26512;SDS011;14186;53.822;10.152;2022-11-20T07:32:01;8.00;;;4.50;;
26512;SDS011;14186;53.822;10.152;2022-11-20T07:37:01;6.25;;;3.42;;
26512;SDS011;14186;53.822;10.152;2022-11-20T07:42:03;7.97;;;3.85;;
26512;SDS011;14186;53.822;10.152;2022-11-20T07:47:03;7.70;;;4.55;;
26512;SDS011;14186;53.822;10.152;2022-11-20T07:52:03;8.43;;;4.10;;
26512;SDS011;14186;53.822;10.152;2022-11-20T07:57:05;8.20;;;4.13;;
26512;SDS011;14186;53.822;10.152;2022-11-20T08:02:05;9.07;;;5.07;;
26512;SDS011;14186;53.822;10.152;2022-11-20T08:07:05;7.55;;;5.30;;
26512;SDS011;14186;53.822;10.152;2022-11-20T08:12:07;7.85;;;4.60;;
26512;SDS011;14186;53.822;10.152;2022-11-20T08:17:07;6.47;;;3.60;;
26512;SDS011;14186;53.822;10.152;2022-11-20T08:22:07;7.40;;;4.05;;
26512;SDS011;14186;53.822;10.152;2022-11-20T08:27:09;6.88;;;3.78;;
26512;SDS011;14186;53.822;10.152;2022-11-20T08:32:09;6.78;;;3.80;;
26512;SDS011;14186;53.822;10.152;2022-11-20T08:37:09;7.97;;;3.97;;
26512;SDS011;14186;53.822;10.152;2022-11-20T08:42:11;9.40;;;4.38;;
26512;SDS011;14186;53.822;10.152;2022-11-20T08:47:11;7.45;;;3.80;;
26512;SDS011;14186;53.822;10.152;2022-11-20T08:52:11;10.38;;;5.32;;
26512;SDS011;14186;53.822;10.152;2022-11-20T08:57:13;8.60;;;4.07;;
26512;SDS011;14186;53.822;10.152;2022-11-20T09:02:13;6.65;;;3.55;;
26512;SDS011;14186;53.822;10.152;2022-11-20T09:07:13;7.57;;;4.38;;
26512;SDS011;14186;53.822;10.152;2022-11-20T09:12:14;7.88;;;4.47;;
26512;SDS011;14186;53.822;10.152;2022-11-20T09:17:15;6.40;;;4.18;;
26512;SDS011;14186;53.822;10.152;2022-11-20T09:22:15;7.35;;;3.97;;
26512;SDS011;14186;53.822;10.152;2022-11-20T09:27:16;5.50;;;3.80;;
26512;SDS011;14186;53.822;10.152;2022-11-20T09:32:16;5.72;;;3.40;;
26512;SDS011;14186;53.822;10.152;2022-11-20T09:37:17;5.75;;;3.50;;
26512;SDS011;14186;53.822;10.152;2022-11-20T09:42:22;7.47;;;3.47;;
26512;SDS011;14186;53.822;10.152;2022-11-20T09:47:25;9.30;;;3.85;;
26512;SDS011;14186;53.822;10.152;2022-11-20T09:52:29;6.60;;;3.53;;
26512;SDS011;14186;53.822;10.152;2022-11-20T09:57:35;5.83;;;3.53;;
26512;SDS011;14186;53.822;10.152;2022-11-20T10:02:37;9.17;;;4.97;;
26512;SDS011;14186;53.822;10.152;2022-11-20T10:07:41;7.20;;;3.60;;
26512;SDS011;14186;53.822;10.152;2022-11-20T10:12:49;5.47;;;3.67;;
26512;SDS011;14186;53.822;10.152;2022-11-20T10:17:58;6.97;;;3.60;;
26512;SDS011;14186;53.822;10.152;2022-11-20T10:23:06;6.90;;;4.10;;
26512;SDS011;14186;53.822;10.152;2022-11-20T10:28:16;7.60;;;3.92;;
26512;SDS011;14186;53.822;10.152;2022-11-20T10:33:22;6.15;;;3.70;;
26512;SDS011;14186;53.822;10.152;2022-11-20T10:38:24;5.80;;;2.95;;
26512;SDS011;14186;53.822;10.152;2022-11-20T10:43:28;4.72;;;2.88;;
26512;SDS011;14186;53.822;10.152;2022-11-20T10:48:32;5.63;;;3.42;;
26512;SDS011;14186;53.822;10.152;2022-11-20T10:58:59;5.88;;;3.00;;
26512;SDS011;14186;53.822;10.152;2022-11-20T11:04:01;6.53;;;3.30;;
26512;SDS011;14186;53.822;10.152;2022-11-20T11:09:02;3.80;;;2.40;;
26512;SDS011;14186;53.822;10.152;2022-11-20T11:14:06;8.52;;;3.17;;
26512;SDS011;14186;53.822;10.152;2022-11-20T11:19:07;7.78;;;4.25;;
26512;SDS011;14186;53.822;10.152;2022-11-20T11:24:15;5.15;;;3.35;;
26512;SDS011;14186;53.822;10.152;2022-11-20T11:29:20;6.18;;;3.70;;
26512;SDS011;14186;53.822;10.152;2022-11-20T11:34:20;5.50;;;3.35;;
26512;SDS011;14186;53.822;10.152;2022-11-20T11:39:20;4.13;;;2.45;;
26512;SDS011;14186;53.822;10.152;2022-11-20T11:44:24;5.32;;;2.72;;
26512;SDS011;14186;53.822;10.152;2022-11-20T11:49:26;4.65;;;2.53;;
26512;SDS011;14186;53.822;10.152;2022-11-20T11:54:26;4.70;;;2.97;;
26512;SDS011;14186;53.822;10.152;2022-11-20T11:59:31;4.45;;;2.85;;
26512;SDS011;14186;53.822;10.152;2022-11-20T12:04:40;4.75;;;2.40;;
26512;SDS011;14186;53.822;10.152;2022-11-20T12:09:43;4.32;;;2.08;;
26512;SDS011;14186;53.822;10.152;2022-11-20T12:14:47;8.57;;;4.25;;
26512;SDS011;14186;53.822;10.152;2022-11-20T12:19:48;3.03;;;1.50;;
26512;SDS011;14186;53.822;10.152;2022-11-20T12:24:52;3.05;;;1.65;;
26512;SDS011;14186;53.822;10.152;2022-11-20T12:29:58;7.47;;;3.70;;
26512;SDS011;14186;53.822;10.152;2022-11-20T12:40:02;4.90;;;2.13;;
26512;SDS011;14186;53.822;10.152;2022-11-20T12:45:12;4.82;;;2.90;;
26512;SDS011;14186;53.822;10.152;2022-11-20T12:50:15;7.45;;;3.55;;
26512;SDS011;14186;53.822;10.152;2022-11-20T12:55:21;7.60;;;3.20;;
26512;SDS011;14186;53.822;10.152;2022-11-20T13:00:25;4.82;;;2.50;;
26512;SDS011;14186;53.822;10.152;2022-11-20T13:05:27;3.85;;;2.58;;
26512;SDS011;14186;53.822;10.152;2022-11-20T13:10:32;3.40;;;2.03;;
26512;SDS011;14186;53.822;10.152;2022-11-20T13:15:38;6.43;;;2.90;;
26512;SDS011;14186;53.822;10.152;2022-11-20T13:20:42;4.85;;;2.22;;
26512;SDS011;14186;53.822;10.152;2022-11-20T13:25:42;3.83;;;2.33;;
26512;SDS011;14186;53.822;10.152;2022-11-20T13:30:50;4.20;;;2.35;;
26512;SDS011;14186;53.822;10.152;2022-11-20T13:35:54;6.85;;;3.78;;
26512;SDS011;14186;53.822;10.152;2022-11-20T13:40:55;5.45;;;3.00;;
26512;SDS011;14186;53.822;10.152;2022-11-20T13:45:58;6.85;;;3.78;;
26512;SDS011;14186;53.822;10.152;2022-11-20T13:51:04;4.55;;;2.47;;
26512;SDS011;14186;53.822;10.152;2022-11-20T13:56:07;3.88;;;2.47;;
26512;SDS011;14186;53.822;10.152;2022-11-20T14:01:16;4.65;;;3.08;;
26512;SDS011;14186;53.822;10.152;2022-11-20T14:06:20;7.35;;;3.65;;
26512;SDS011;14186;53.822;10.152;2022-11-20T14:11:24;5.30;;;2.90;;
26512;SDS011;14186;53.822;10.152;2022-11-20T14:16:26;6.78;;;3.35;;
26512;SDS011;14186;53.822;10.152;2022-11-20T14:21:27;6.65;;;3.85;;
26512;SDS011;14186;53.822;10.152;2022-11-20T14:26:28;6.40;;;3.97;;
26512;SDS011;14186;53.822;10.152;2022-11-20T14:31:29;6.57;;;3.95;;
26512;SDS011;14186;53.822;10.152;2022-11-20T14:36:30;9.88;;;5.28;;
26512;SDS011;14186;53.822;10.152;2022-11-20T14:41:30;7.88;;;4.18;;
26512;SDS011;14186;53.822;10.152;2022-11-20T14:46:31;7.20;;;3.92;;
26512;SDS011;14186;53.822;10.152;2022-11-20T14:51:34;6.72;;;3.83;;
26512;SDS011;14186;53.822;10.152;2022-11-20T14:56:34;9.77;;;5.32;;
26512;SDS011;14186;53.822;10.152;2022-11-20T15:01:35;8.40;;;4.35;;
26512;SDS011;14186;53.822;10.152;2022-11-20T15:06:36;11.48;;;5.85;;
26512;SDS011;14186;53.822;10.152;2022-11-20T15:11:37;11.20;;;6.75;;
26512;SDS011;14186;53.822;10.152;2022-11-20T15:16:38;12.13;;;7.05;;
26512;SDS011;14186;53.822;10.152;2022-11-20T15:21:39;9.27;;;5.97;;
26512;SDS011;14186;53.822;10.152;2022-11-20T15:26:39;11.20;;;5.05;;
26512;SDS011;14186;53.822;10.152;2022-11-20T15:31:40;15.63;;;9.18;;
26512;SDS011;14186;53.822;10.152;2022-11-20T15:36:41;10.00;;;5.90;;
26512;SDS011;14186;53.822;10.152;2022-11-20T15:41:41;10.98;;;5.22;;
26512;SDS011;14186;53.822;10.152;2022-11-20T15:46:43;11.50;;;4.78;;
26512;SDS011;14186;53.822;10.152;2022-11-20T15:51:44;19.48;;;9.38;;
26512;SDS011;14186;53.822;10.152;2022-11-20T15:56:45;11.68;;;6.18;;
26512;SDS011;14186;53.822;10.152;2022-11-20T16:01:46;7.10;;;4.43;;
26512;SDS011;14186;53.822;10.152;2022-11-20T16:06:46;9.55;;;5.05;;
26512;SDS011;14186;53.822;10.152;2022-11-20T16:11:46;8.20;;;4.55;;
26512;SDS011;14186;53.822;10.152;2022-11-20T16:16:48;15.38;;;5.72;;
26512;SDS011;14186;53.822;10.152;2022-11-20T16:21:48;7.47;;;4.50;;
26512;SDS011;14186;53.822;10.152;2022-11-20T16:26:49;9.30;;;4.45;;
26512;SDS011;14186;53.822;10.152;2022-11-20T16:31:50;7.30;;;4.25;;
26512;SDS011;14186;53.822;10.152;2022-11-20T16:36:50;8.32;;;4.45;;
26512;SDS011;14186;53.822;10.152;2022-11-20T16:41:50;8.90;;;5.30;;
26512;SDS011;14186;53.822;10.152;2022-11-20T16:46:52;10.43;;;5.90;;
26512;SDS011;14186;53.822;10.152;2022-11-20T16:51:52;11.70;;;6.90;;
26512;SDS011;14186;53.822;10.152;2022-11-20T16:56:52;14.32;;;7.88;;
26512;SDS011;14186;53.822;10.152;2022-11-20T17:01:54;11.18;;;7.75;;
26512;SDS011;14186;53.822;10.152;2022-11-20T17:06:54;13.55;;;7.32;;
26512;SDS011;14186;53.822;10.152;2022-11-20T17:11:54;19.70;;;9.63;;
26512;SDS011;14186;53.822;10.152;2022-11-20T17:16:56;17.95;;;9.10;;
26512;SDS011;14186;53.822;10.152;2022-11-20T17:21:56;15.23;;;8.60;;
26512;SDS011;14186;53.822;10.152;2022-11-20T17:26:56;50.88;;;29.60;;
26512;SDS011;14186;53.822;10.152;2022-11-20T17:31:58;15.27;;;8.25;;
26512;SDS011;14186;53.822;10.152;2022-11-20T17:36:58;19.20;;;11.70;;
26512;SDS011;14186;53.822;10.152;2022-11-20T17:41:58;25.10;;;15.88;;
26512;SDS011;14186;53.822;10.152;2022-11-20T17:46:59;14.82;;;9.50;;
26512;SDS011;14186;53.822;10.152;2022-11-20T17:52:00;15.95;;;9.77;;
26512;SDS011;14186;53.822;10.152;2022-11-20T17:57:00;18.73;;;9.70;;
26512;SDS011;14186;53.822;10.152;2022-11-20T18:02:01;18.50;;;11.57;;
26512;SDS011;14186;53.822;10.152;2022-11-20T18:07:02;28.80;;;15.77;;
26512;SDS011;14186;53.822;10.152;2022-11-20T18:12:02;23.88;;;14.82;;
26512;SDS011;14186;53.822;10.152;2022-11-20T18:17:04;22.83;;;12.10;;
26512;SDS011;14186;53.822;10.152;2022-11-20T18:22:05;30.67;;;13.43;;
26512;SDS011;14186;53.822;10.152;2022-11-20T18:27:06;23.88;;;12.90;;
26512;SDS011;14186;53.822;10.152;2022-11-20T18:32:07;27.27;;;14.30;;
26512;SDS011;14186;53.822;10.152;2022-11-20T18:37:08;31.38;;;15.98;;
26512;SDS011;14186;53.822;10.152;2022-11-20T18:42:09;25.10;;;13.07;;
26512;SDS011;14186;53.822;10.152;2022-11-20T18:47:12;30.23;;;15.75;;
26512;SDS011;14186;53.822;10.152;2022-11-20T18:52:13;38.67;;;16.45;;
26512;SDS011;14186;53.822;10.152;2022-11-20T18:57:14;33.40;;;15.77;;
26512;SDS011;14186;53.822;10.152;2022-11-20T19:02:16;29.30;;;16.70;;
26512;SDS011;14186;53.822;10.152;2022-11-20T19:07:17;19.10;;;10.57;;
26512;SDS011;14186;53.822;10.152;2022-11-20T19:12:17;16.77;;;8.75;;
26512;SDS011;14186;53.822;10.152;2022-11-20T19:17:19;17.10;;;7.55;;
26512;SDS011;14186;53.822;10.152;2022-11-20T19:22:19;17.63;;;8.90;;
26512;SDS011;14186;53.822;10.152;2022-11-20T19:27:19;17.85;;;10.50;;
26512;SDS011;14186;53.822;10.152;2022-11-20T19:32:21;19.67;;;10.50;;
26512;SDS011;14186;53.822;10.152;2022-11-20T19:37:21;26.05;;;14.10;;
26512;SDS011;14186;53.822;10.152;2022-11-20T19:42:21;23.67;;;14.65;;
26512;SDS011;14186;53.822;10.152;2022-11-20T19:47:23;23.42;;;11.50;;
26512;SDS011;14186;53.822;10.152;2022-11-20T19:52:23;20.67;;;10.98;;
26512;SDS011;14186;53.822;10.152;2022-11-20T19:57:23;19.48;;;10.82;;
26512;SDS011;14186;53.822;10.152;2022-11-20T20:02:25;14.52;;;7.68;;
26512;SDS011;14186;53.822;10.152;2022-11-20T20:07:25;19.40;;;10.25;;
26512;SDS011;14186;53.822;10.152;2022-11-20T20:12:25;29.83;;;15.40;;
26512;SDS011;14186;53.822;10.152;2022-11-20T20:17:27;18.15;;;9.70;;
26512;SDS011;14186;53.822;10.152;2022-11-20T20:22:27;21.10;;;11.52;;
26512;SDS011;14186;53.822;10.152;2022-11-20T20:27:27;24.15;;;11.90;;
26512;SDS011;14186;53.822;10.152;2022-11-20T20:32:29;22.80;;;10.93;;
26512;SDS011;14186;53.822;10.152;2022-11-20T20:37:29;25.15;;;12.50;;
26512;SDS011;14186;53.822;10.152;2022-11-20T20:42:29;22.52;;;12.48;;
26512;SDS011;14186;53.822;10.152;2022-11-20T20:47:31;25.13;;;13.38;;
26512;SDS011;14186;53.822;10.152;2022-11-20T20:52:31;29.70;;;12.60;;
26512;SDS011;14186;53.822;10.152;2022-11-20T20:57:32;25.58;;;12.55;;
26512;SDS011;14186;53.822;10.152;2022-11-20T21:02:33;22.25;;;12.75;;
26512;SDS011;14186;53.822;10.152;2022-11-20T21:07:33;21.40;;;11.63;;
26512;SDS011;14186;53.822;10.152;2022-11-20T21:12:33;18.88;;;10.88;;
26512;SDS011;14186;53.822;10.152;2022-11-20T21:17:35;19.42;;;11.40;;
26512;SDS011;14186;53.822;10.152;2022-11-20T21:22:35;19.08;;;10.60;;
26512;SDS011;14186;53.822;10.152;2022-11-20T21:27:35;20.17;;;10.48;;
26512;SDS011;14186;53.822;10.152;2022-11-20T21:32:37;21.77;;;10.35;;
26512;SDS011;14186;53.822;10.152;2022-11-20T21:37:37;28.42;;;12.80;;
26512;SDS011;14186;53.822;10.152;2022-11-20T21:42:37;23.92;;;13.57;;
26512;SDS011;14186;53.822;10.152;2022-11-20T21:47:39;25.42;;;13.85;;
26512;SDS011;14186;53.822;10.152;2022-11-20T21:52:39;24.88;;;13.32;;
26512;SDS011;14186;53.822;10.152;2022-11-20T21:57:39;21.80;;;11.82;;
26512;SDS011;14186;53.822;10.152;2022-11-20T22:02:41;19.10;;;9.77;;
26512;SDS011;14186;53.822;10.152;2022-11-20T22:07:41;22.10;;;9.73;;
26512;SDS011;14186;53.822;10.152;2022-11-20T22:12:42;20.60;;;9.88;;
26512;SDS011;14186;53.822;10.152;2022-11-20T22:17:43;19.10;;;9.48;;
26512;SDS011;14186;53.822;10.152;2022-11-20T22:22:43;15.98;;;8.82;;
26512;SDS011;14186;53.822;10.152;2022-11-20T22:27:44;19.55;;;9.50;;
26512;SDS011;14186;53.822;10.152;2022-11-20T22:32:46;34.72;;;15.07;;
26512;SDS011;14186;53.822;10.152;2022-11-20T22:37:47;20.15;;;9.07;;
26512;SDS011;14186;53.822;10.152;2022-11-20T22:42:47;16.98;;;8.18;;
26512;SDS011;14186;53.822;10.152;2022-11-20T22:47:49;19.73;;;9.45;;
26512;SDS011;14186;53.822;10.152;2022-11-20T22:52:49;18.23;;;9.68;;
26512;SDS011;14186;53.822;10.152;2022-11-20T22:57:49;17.58;;;8.45;;
26512;SDS011;14186;53.822;10.152;2022-11-20T23:02:51;15.45;;;8.38;;
26512;SDS011;14186;53.822;10.152;2022-11-20T23:07:51;15.68;;;8.30;;
26512;SDS011;14186;53.822;10.152;2022-11-20T23:12:51;17.77;;;8.90;;
26512;SDS011;14186;53.822;10.152;2022-11-20T23:17:54;13.65;;;7.40;;
26512;SDS011;14186;53.822;10.152;2022-11-20T23:22:54;13.90;;;7.45;;
26512;SDS011;14186;53.822;10.152;2022-11-20T23:27:54;15.57;;;7.70;;
26512;SDS011;14186;53.822;10.152;2022-11-20T23:32:56;16.60;;;9.18;;
26512;SDS011;14186;53.822;10.152;2022-11-20T23:37:56;17.20;;;8.48;;
26512;SDS011;14186;53.822;10.152;2022-11-20T23:42:56;17.05;;;8.82;;
26512;SDS011;14186;53.822;10.152;2022-11-20T23:47:58;16.98;;;8.00;;
26512;SDS011;14186;53.822;10.152;2022-11-20T23:52:58;16.27;;;7.55;;
26512;SDS011;14186;53.822;10.152;2022-11-20T23:57:58;16.05;;;8.00;;
